Time;durP1;ratioP1;P1;durP2;ratioP2;P2;SDS_P1;SDS_P2;PMS_P1;PMS_P2;Temp;Humidity;BMP_temperature;BMP_pressure;BME280_temperature;BME280_humidity;BME280_pressure;Samples;Min_cycle;Max_cycle;Signal;HPM_P1;HPM_P2
2021/01/15 00:04:06;;;;;;;2.13;1.30;;;16.90;61.40;;;;;;10308418;28;20121;-66
2021/01/15 00:09:07;;;;;;;2.25;1.33;;;16.90;61.40;;;;;;10280525;28;20035;-66
2021/01/15 00:14:07;;;;;;;3.25;1.80;;;16.90;61.30;;;;;;10293488;28;20459;-66
2021/01/15 00:19:08;;;;;;;2.03;1.20;;;16.90;61.30;;;;;;10293270;28;20027;-66
2021/01/15 00:24:09;;;;;;;2.72;1.40;;;16.90;61.40;;;;;;10292123;28;20399;-66
2021/01/15 00:29:15;;;;;;;2.15;1.55;;;16.90;61.30;;;;;;10282603;28;20600;-66
2021/01/15 00:34:17;;;;;;;2.20;1.30;;;16.90;61.30;;;;;;10290463;28;20031;-67
2021/01/15 00:39:17;;;;;;;3.15;1.27;;;16.90;61.30;;;;;;10292387;28;20082;-66
2021/01/15 00:44:18;;;;;;;2.33;1.20;;;16.80;61.30;;;;;;10290320;28;20081;-66
2021/01/15 00:49:19;;;;;;;1.85;1.23;;;16.90;61.30;;;;;;10284974;28;20042;-66
2021/01/15 00:54:20;;;;;;;2.00;1.40;;;16.80;61.20;;;;;;10290735;28;20034;-66
2021/01/15 00:59:21;;;;;;;1.63;1.05;;;16.90;61.20;;;;;;10290926;28;20039;-66
2021/01/15 01:04:22;;;;;;;1.67;1.10;;;16.90;61.20;;;;;;10287359;28;20031;-66
2021/01/15 01:09:22;;;;;;;2.65;1.30;;;16.80;61.10;;;;;;10292148;28;20134;-66
2021/01/15 01:14:23;;;;;;;1.85;1.10;;;16.90;61.10;;;;;;10290424;28;20535;-66
2021/01/15 01:19:24;;;;;;;1.67;0.98;;;16.80;61.10;;;;;;10290589;28;20031;-66
2021/01/15 01:24:26;;;;;;;1.83;1.23;;;16.80;61.10;;;;;;10279379;28;20030;-66
2021/01/15 01:29:26;;;;;;;1.83;1.10;;;16.80;61.10;;;;;;10290716;28;20031;-66
2021/01/15 01:34:27;;;;;;;2.22;1.27;;;16.80;61.70;;;;;;10290178;28;20078;-66
2021/01/15 01:39:27;;;;;;;1.85;1.45;;;16.90;61.10;;;;;;10286933;28;20510;-66
2021/01/15 01:44:28;;;;;;;2.22;1.30;;;16.90;61.10;;;;;;10285036;28;20110;-66
2021/01/15 01:49:29;;;;;;;2.45;1.00;;;16.90;61.10;;;;;;10291436;28;20038;-66
2021/01/15 01:54:35;;;;;;;1.88;1.08;;;16.80;61.00;;;;;;10291430;28;20063;-66
2021/01/15 01:59:36;;;;;;;2.80;1.60;;;16.80;61.10;;;;;;10289845;28;20039;-66
2021/01/15 02:04:37;;;;;;;2.92;1.35;;;16.80;61.00;;;;;;10286140;28;20085;-66
2021/01/15 02:10:08;;;;;;;1.90;1.15;;;16.80;61.70;;;;;;10293205;28;20161;-66
2021/01/15 02:15:27;;;;;;;1.52;1.00;;;16.80;61.00;;;;;;10296966;28;20023;-66
2021/01/15 02:20:44;;;;;;;1.60;0.97;;;16.80;61.00;;;;;;10296777;28;20468;-67
2021/01/15 02:26:25;;;;;;;1.98;1.00;;;16.80;61.00;;;;;;10296695;28;20030;-66
2021/01/15 02:31:45;;;;;;;1.20;0.70;;;16.80;61.10;;;;;;10293245;28;20546;-66
2021/01/15 02:37:38;;;;;;;1.73;1.00;;;16.80;61.00;;;;;;10296801;28;20027;-67
2021/01/15 02:42:41;;;;;;;1.08;0.82;;;16.80;61.00;;;;;;10284446;28;20298;-66
2021/01/15 02:47:53;;;;;;;1.83;0.88;;;16.80;61.10;;;;;;10297158;28;20365;-66
2021/01/15 02:52:56;;;;;;;1.52;1.20;;;16.80;61.00;;;;;;10295457;28;20031;-67
2021/01/15 02:57:57;;;;;;;1.83;1.10;;;16.80;61.00;;;;;;10296572;28;20043;-66
2021/01/15 03:03:12;;;;;;;2.25;0.90;;;16.80;60.90;;;;;;10287490;28;20542;-66
2021/01/15 03:08:15;;;;;;;2.83;1.33;;;16.80;61.00;;;;;;10295180;28;20055;-67
2021/01/15 03:13:16;;;;;;;2.00;1.02;;;16.80;61.00;;;;;;10283207;28;20038;-67
2021/01/15 03:18:18;;;;;;;2.22;1.15;;;16.80;60.90;;;;;;10289114;28;20034;-66
2021/01/15 03:23:19;;;;;;;1.33;0.85;;;16.80;60.90;;;;;;10277242;28;20177;-66
2021/01/15 03:28:20;;;;;;;1.45;0.90;;;16.80;60.90;;;;;;10290785;28;20128;-66
2021/01/15 03:33:20;;;;;;;1.27;0.77;;;16.80;61.00;;;;;;10292139;28;20115;-66
2021/01/15 03:38:21;;;;;;;1.17;0.70;;;16.80;61.00;;;;;;10287421;28;20111;-66
2021/01/15 03:43:23;;;;;;;2.13;1.02;;;16.80;60.90;;;;;;10295062;28;20027;-66
2021/01/15 03:48:24;;;;;;;2.53;1.45;;;16.80;60.90;;;;;;10294609;28;20027;-66
2021/01/15 03:53:24;;;;;;;1.73;1.00;;;16.80;60.90;;;;;;10309305;28;20122;-66
2021/01/15 03:58:25;;;;;;;2.08;1.08;;;16.80;60.90;;;;;;10305557;28;20134;-66
2021/01/15 04:03:26;;;;;;;2.05;1.02;;;16.80;61.00;;;;;;10292830;28;20154;-66
2021/01/15 04:08:26;;;;;;;0.90;0.77;;;16.80;60.90;;;;;;10293891;28;20117;-67
2021/01/15 04:13:27;;;;;;;1.83;0.90;;;16.80;60.80;;;;;;10293697;28;20146;-67
2021/01/15 04:18:30;;;;;;;1.55;1.27;;;16.80;60.90;;;;;;10288255;28;20099;-67
2021/01/15 04:23:31;;;;;;;1.90;1.02;;;16.80;60.70;;;;;;10291075;28;20033;-66
2021/01/15 04:28:32;;;;;;;1.73;1.27;;;16.80;60.70;;;;;;10286402;28;20113;-66
2021/01/15 04:33:34;;;;;;;1.33;0.85;;;16.80;60.70;;;;;;10291910;28;20109;-66
2021/01/15 04:38:34;;;;;;;1.48;0.98;;;16.80;60.70;;;;;;10288216;28;20449;-66
2021/01/15 04:43:39;;;;;;;2.28;1.13;;;16.80;60.70;;;;;;10292457;28;20118;-66
2021/01/15 04:48:43;;;;;;;1.33;0.85;;;16.80;61.30;;;;;;10292685;28;20039;-66
2021/01/15 04:54:00;;;;;;;2.03;1.15;;;16.80;60.70;;;;;;10275522;28;20383;-66
2021/01/15 04:59:05;;;;;;;1.45;1.05;;;16.80;60.70;;;;;;10288250;28;20055;-66
2021/01/15 05:04:09;;;;;;;1.73;0.77;;;16.80;60.70;;;;;;10287534;28;20065;-66
2021/01/15 05:09:19;;;;;;;1.90;1.00;;;16.80;60.70;;;;;;10292244;28;20737;-66
2021/01/15 05:14:21;;;;;;;0.90;0.60;;;16.80;60.60;;;;;;10278373;28;20104;-66
2021/01/15 05:19:22;;;;;;;1.52;1.10;;;16.80;60.60;;;;;;10277744;28;20037;-66
2021/01/15 05:24:22;;;;;;;2.38;1.10;;;16.80;60.60;;;;;;10274149;28;20038;-66
2021/01/15 05:29:23;;;;;;;1.48;0.93;;;16.80;60.60;;;;;;10265467;28;20023;-66
2021/01/15 05:34:26;;;;;;;1.13;0.98;;;16.80;60.70;;;;;;10259146;28;20044;-66
2021/01/15 05:39:27;;;;;;;1.25;0.73;;;16.80;60.70;;;;;;10296080;28;20050;-65
2021/01/15 05:44:33;;;;;;;1.27;0.98;;;16.80;60.60;;;;;;10288545;28;20051;-66
2021/01/15 05:49:34;;;;;;;1.67;0.93;;;16.90;60.60;;;;;;10293897;28;20034;-66
2021/01/15 05:54:35;;;;;;;1.33;1.00;;;16.90;60.40;;;;;;10283392;28;20035;-66
2021/01/15 05:59:39;;;;;;;1.60;1.13;;;17.00;60.50;;;;;;10297907;28;20488;-66
2021/01/15 06:04:40;;;;;;;1.30;0.90;;;17.00;60.30;;;;;;10298779;28;20033;-66
2021/01/15 06:09:43;;;;;;;1.65;1.00;;;17.00;60.30;;;;;;10289865;28;20031;-66
2021/01/15 06:14:49;;;;;;;1.33;1.02;;;17.10;60.20;;;;;;10293831;28;20074;-65
2021/01/15 06:19:53;;;;;;;4.15;0.98;;;17.10;60.20;;;;;;10297531;28;20027;-66
2021/01/15 06:25:12;;;;;;;8.30;1.25;;;17.20;60.50;;;;;;10295466;28;20031;-64
2021/01/15 06:30:23;;;;;;;3.38;1.00;;;17.10;60.80;;;;;;10303965;28;20039;-66
2021/01/15 06:35:36;;;;;;;4.07;1.27;;;17.20;61.00;;;;;;10293786;28;20062;-65
2021/01/15 06:40:45;;;;;;;2.25;1.00;;;17.30;61.80;;;;;;10274715;28;20460;-63
2021/01/15 06:45:49;;;;;;;3.55;1.23;;;17.30;62.00;;;;;;10290713;28;20035;-62
2021/01/15 06:50:56;;;;;;;4.20;1.35;;;17.30;61.80;;;;;;10296699;28;20440;-62
2021/01/15 06:56:04;;;;;;;10.38;2.60;;;17.30;61.40;;;;;;10290780;28;20038;-62
2021/01/15 07:01:44;;;;;;;10.05;1.80;;;17.40;61.30;;;;;;10277020;28;20074;-62
2021/01/15 07:07:03;;;;;;;7.80;1.55;;;17.40;62.10;;;;;;10279493;28;20109;-69
2021/01/15 07:12:24;;;;;;;5.85;1.73;;;17.50;61.60;;;;;;10282962;28;20031;-69
2021/01/15 07:17:32;;;;;;;10.63;1.90;;;17.50;61.10;;;;;;10271651;28;20043;-65
2021/01/15 07:23:13;;;;;;;12.45;2.55;;;17.40;61.30;;;;;;10284609;28;20117;-69
2021/01/15 07:28:15;;;;;;;10.25;1.80;;;17.50;61.30;;;;;;10286178;28;20395;-66
2021/01/15 07:33:20;;;;;;;9.38;2.97;;;17.50;61.50;;;;;;10285920;28;20033;-66
2021/01/15 07:38:21;;;;;;;13.13;1.77;;;17.50;61.50;;;;;;10274553;28;20023;-67
2021/01/15 07:43:34;;;;;;;7.20;1.65;;;17.50;61.40;;;;;;10289233;28;20423;-64
2021/01/15 07:48:34;;;;;;;10.93;2.13;;;17.60;61.50;;;;;;10291083;28;20035;-68
2021/01/15 07:53:38;;;;;;;7.53;2.65;;;17.60;61.70;;;;;;10292375;28;20515;-65
2021/01/15 07:58:38;;;;;;;17.38;2.20;;;17.60;61.60;;;;;;10282062;28;20059;-64
2021/01/15 08:03:53;;;;;;;8.38;1.88;;;17.60;62.40;;;;;;10290792;28;20086;-63
2021/01/15 08:09:08;;;;;;;7.07;1.58;;;17.70;62.50;;;;;;10285836;28;20031;-62
2021/01/15 08:14:12;;;;;;;6.22;1.92;;;17.70;63.00;;;;;;10287248;28;20066;-65
2021/01/15 08:19:19;;;;;;;10.82;1.65;;;17.70;63.10;;;;;;10277831;28;20034;-67
2021/01/15 08:24:22;;;;;;;14.13;2.45;;;17.60;63.60;;;;;;10283558;28;20484;-64
2021/01/15 08:29:30;;;;;;;17.10;2.60;;;17.70;63.80;;;;;;10267898;28;20110;-65
2021/01/15 08:34:33;;;;;;;5.68;1.45;;;17.70;63.80;;;;;;10282630;28;20035;-65
2021/01/15 08:39:53;;;;;;;15.40;2.33;;;17.70;63.50;;;;;;10289986;28;20015;-66
2021/01/15 08:44:55;;;;;;;;;;;17.70;63.10;;;;;;10285927;28;20081;-64
2021/01/15 08:49:58;;;;;;;14.32;2.72;;;17.60;62.90;;;;;;10281313;28;20390;-65
2021/01/15 08:55:03;;;;;;;12.30;2.67;;;17.60;62.70;;;;;;10272542;28;20093;-65
2021/01/15 09:00:13;;;;;;;22.02;2.90;;;17.60;62.10;;;;;;10283962;28;20057;-64
2021/01/15 09:05:20;;;;;;;8.40;2.00;;;17.60;61.90;;;;;;10278186;28;20031;-64
2021/01/15 09:10:21;;;;;;;9.23;2.08;;;17.60;62.00;;;;;;10280314;28;20038;-65
2021/01/15 09:15:28;;;;;;;9.88;2.85;;;17.60;62.10;;;;;;10279405;28;20035;-65
2021/01/15 09:20:29;;;;;;;5.60;2.00;;;17.60;61.90;;;;;;10288005;28;20426;-64
2021/01/15 09:25:29;;;;;;;8.73;2.85;;;17.60;62.00;;;;;;10299630;28;20062;-65
2021/01/15 09:30:31;;;;;;;6.38;1.80;;;17.60;61.90;;;;;;10298806;28;20069;-65
2021/01/15 09:35:31;;;;;;;6.63;2.10;;;17.60;61.90;;;;;;10291344;28;20551;-61
2021/01/15 09:40:32;;;;;;;11.90;2.70;;;17.60;61.90;;;;;;10298317;28;20117;-59
2021/01/15 09:45:33;;;;;;;9.13;3.58;;;17.70;61.40;;;;;;10298109;28;20052;-63
2021/01/15 09:50:33;;;;;;;18.20;2.95;;;17.60;61.40;;;;;;10298842;28;20114;-64
2021/01/15 09:55:34;;;;;;;9.00;2.97;;;17.70;61.80;;;;;;10298632;28;20035;-61
2021/01/15 10:00:35;;;;;;;10.68;3.47;;;17.70;61.80;;;;;;10297179;28;20145;-61
2021/01/15 10:05:35;;;;;;;11.80;2.50;;;17.70;61.60;;;;;;10280858;28;20105;-62
2021/01/15 10:10:36;;;;;;;19.70;3.10;;;17.70;61.80;;;;;;10311417;28;20066;-63
2021/01/15 10:15:37;;;;;;;9.32;2.75;;;17.70;61.70;;;;;;10295100;28;20105;-62
2021/01/15 10:20:44;;;;;;;12.52;2.78;;;17.70;61.90;;;;;;10298113;28;20109;-63
2021/01/15 10:25:45;;;;;;;10.95;2.80;;;17.80;62.00;;;;;;10276708;28;20031;-63
2021/01/15 10:30:47;;;;;;;17.65;3.00;;;17.80;62.30;;;;;;10291338;28;20459;-64
2021/01/15 10:35:52;;;;;;;17.08;3.60;;;17.80;63.00;;;;;;10296373;28;20046;-62
2021/01/15 10:40:55;;;;;;;17.80;3.13;;;17.80;63.00;;;;;;10289100;28;20030;-61
2021/01/15 10:45:56;;;;;;;14.23;3.58;;;17.80;63.00;;;;;;10283813;28;20027;-61
2021/01/15 10:50:57;;;;;;;12.88;3.03;;;17.80;63.10;;;;;;10284099;28;20059;-60
2021/01/15 10:55:57;;;;;;;19.13;4.20;;;17.90;63.10;;;;;;10275165;28;20026;-61
2021/01/15 11:00:58;;;;;;;17.40;2.90;;;17.80;63.00;;;;;;10295125;28;20534;-62
2021/01/15 11:05:59;;;;;;;14.77;2.35;;;17.90;63.10;;;;;;10294363;28;20101;-63
2021/01/15 11:10:59;;;;;;;22.13;3.10;;;17.90;63.10;;;;;;10290666;28;20041;-67
2021/01/15 11:16:00;;;;;;;16.40;2.88;;;17.90;63.60;;;;;;10285835;28;20085;-62
2021/01/15 11:21:01;;;;;;;13.50;2.70;;;17.90;62.80;;;;;;10286122;28;20101;-62
2021/01/15 11:26:02;;;;;;;14.75;3.10;;;17.90;63.10;;;;;;10269134;28;20121;-64
2021/01/15 11:31:03;;;;;;;12.93;2.50;;;17.90;64.50;;;;;;10298133;28;20042;-64
2021/01/15 11:36:10;;;;;;;17.15;3.60;;;18.10;65.00;;;;;;10294328;28;20029;-65
2021/01/15 11:41:16;;;;;;;15.77;2.63;;;18.10;65.70;;;;;;10291120;28;20027;-62
2021/01/15 11:46:17;;;;;;;10.50;2.25;;;18.00;65.90;;;;;;10285309;28;20069;-64
2021/01/15 11:51:18;;;;;;;10.95;2.33;;;18.00;66.00;;;;;;10291838;28;20027;-63
2021/01/15 11:56:18;;;;;;;17.90;3.15;;;18.00;65.70;;;;;;10288167;28;20058;-62
2021/01/15 12:01:22;;;;;;;18.15;2.97;;;18.00;65.40;;;;;;10284400;28;20122;-63
2021/01/15 12:06:22;;;;;;;21.67;5.05;;;18.00;66.10;;;;;;10273892;28;20039;-62
2021/01/15 12:11:23;;;;;;;21.50;4.93;;;18.00;65.90;;;;;;10285629;28;20027;-65
2021/01/15 12:16:24;;;;;;;27.02;3.25;;;18.00;66.10;;;;;;10282465;28;20527;-58
2021/01/15 12:21:25;;;;;;;34.70;4.07;;;18.10;66.10;;;;;;10283180;28;20037;-61
2021/01/15 12:26:25;;;;;;;22.63;3.83;;;18.10;66.10;;;;;;10287699;28;20121;-64
2021/01/15 12:31:26;;;;;;;18.85;4.90;;;18.10;66.10;;;;;;10292447;28;20110;-61
2021/01/15 12:36:27;;;;;;;19.67;3.53;;;18.10;66.30;;;;;;10292075;28;20040;-66
2021/01/15 12:41:28;;;;;;;14.77;3.33;;;18.10;66.40;;;;;;10279178;28;20030;-64
2021/01/15 12:46:29;;;;;;;18.52;3.60;;;18.10;66.30;;;;;;10276502;28;20045;-64
2021/01/15 12:51:29;;;;;;;16.83;3.55;;;18.10;65.80;;;;;;10281315;28;20121;-65
2021/01/15 12:56:38;;;;;;;15.43;3.45;;;18.20;65.70;;;;;;10292173;28;20551;-70
2021/01/15 13:01:41;;;;;;;24.13;4.32;;;18.20;66.00;;;;;;10291871;28;20073;-58
2021/01/15 13:06:42;;;;;;;26.35;4.57;;;18.20;66.50;;;;;;10292279;28;20376;-63
2021/01/15 13:11:43;;;;;;;18.27;3.83;;;18.20;65.80;;;;;;10285521;28;20126;-64
2021/01/15 13:16:44;;;;;;;24.73;3.65;;;18.10;65.50;;;;;;10284966;28;20035;-62
2021/01/15 13:21:44;;;;;;;19.20;3.50;;;18.20;65.30;;;;;;10283715;28;20114;-62
2021/01/15 13:26:48;;;;;;;16.58;3.25;;;18.20;65.10;;;;;;10269746;28;20170;-61
2021/01/15 13:31:55;;;;;;;18.95;3.83;;;18.20;65.50;;;;;;10270068;28;20038;-66
2021/01/15 13:36:59;;;;;;;9.18;2.60;;;18.10;65.50;;;;;;10284740;28;20031;-64
2021/01/15 13:42:00;;;;;;;14.57;3.58;;;18.20;65.60;;;;;;10281261;28;20486;-65
2021/01/15 13:47:01;;;;;;;14.63;3.00;;;18.10;65.40;;;;;;10283406;28;20122;-65
2021/01/15 13:52:01;;;;;;;13.70;3.10;;;18.20;65.50;;;;;;10292738;28;20058;-64
2021/01/15 13:57:02;;;;;;;13.32;3.15;;;18.20;65.20;;;;;;10276592;28;20567;-64
2021/01/15 14:02:03;;;;;;;5.68;2.53;;;18.20;65.40;;;;;;10287847;28;20125;-63
2021/01/15 14:07:03;;;;;;;8.43;2.20;;;18.20;65.30;;;;;;10288027;28;20423;-64
2021/01/15 14:12:05;;;;;;;5.75;1.80;;;18.20;65.30;;;;;;10291193;28;20038;-64
2021/01/15 14:17:06;;;;;;;7.07;2.72;;;18.20;65.10;;;;;;10275563;28;20023;-66
2021/01/15 14:22:06;;;;;;;12.00;2.97;;;18.20;65.10;;;;;;10289220;28;20057;-62
2021/01/15 14:27:07;;;;;;;9.40;2.60;;;18.20;64.80;;;;;;10303164;28;20062;-60
2021/01/15 14:32:10;;;;;;;9.30;2.38;;;18.10;64.40;;;;;;10278029;28;20038;-61
2021/01/15 14:37:13;;;;;;;9.25;2.45;;;18.10;64.80;;;;;;10293577;28;20141;-65
2021/01/15 14:42:16;;;;;;;7.72;3.22;;;18.10;65.50;;;;;;10291951;28;20057;-62
2021/01/15 14:47:16;;;;;;;10.40;2.00;;;18.20;66.10;;;;;;10284027;28;20033;-64
2021/01/15 14:52:17;;;;;;;7.63;2.30;;;18.20;65.90;;;;;;10287103;28;20429;-62
2021/01/15 14:57:18;;;;;;;5.65;1.92;;;18.20;65.50;;;;;;10306519;28;20138;-62
2021/01/15 15:02:18;;;;;;;8.13;2.13;;;18.20;65.60;;;;;;10292048;28;20102;-61
2021/01/15 15:07:19;;;;;;;16.27;2.95;;;18.20;65.30;;;;;;10286590;28;20109;-66
2021/01/15 15:12:19;;;;;;;14.13;2.88;;;18.20;65.30;;;;;;10310976;28;20185;-67
2021/01/15 15:17:20;;;;;;;9.15;2.55;;;18.30;64.80;;;;;;10295372;28;20567;-63
2021/01/15 15:22:21;;;;;;;17.50;2.35;;;18.20;65.10;;;;;;10295422;28;20162;-64
2021/01/15 15:27:22;;;;;;;12.77;3.65;;;18.30;65.10;;;;;;10293799;28;20398;-62
2021/01/15 15:32:22;;;;;;;13.50;2.42;;;18.30;65.00;;;;;;10290233;28;20535;-65
2021/01/15 15:37:23;;;;;;;14.02;3.05;;;18.30;64.90;;;;;;10292209;28;20122;-65
2021/01/15 15:42:24;;;;;;;17.15;2.67;;;18.30;65.10;;;;;;10294221;28;20519;-67
2021/01/15 15:47:24;;;;;;;13.90;3.67;;;18.30;64.90;;;;;;10294362;28;20095;-66
2021/01/15 15:52:25;;;;;;;22.13;3.45;;;18.30;64.80;;;;;;10294408;28;20039;-68
2021/01/15 15:57:26;;;;;;;9.90;2.83;;;18.30;64.80;;;;;;10293002;28;20132;-68
2021/01/15 16:02:27;;;;;;;7.85;2.50;;;18.30;65.00;;;;;;10292781;28;20501;-69
2021/01/15 16:07:27;;;;;;;12.27;2.78;;;18.30;65.00;;;;;;10292822;28;20105;-69
2021/01/15 16:12:36;;;;;;;13.00;2.95;;;18.40;64.90;;;;;;10280034;28;20555;-69
2021/01/15 16:17:39;;;;;;;12.98;3.58;;;18.40;64.90;;;;;;10303329;28;20101;-70
2021/01/15 16:22:41;;;;;;;18.65;3.08;;;18.30;64.40;;;;;;10285516;28;20055;-71
2021/01/15 16:27:42;;;;;;;9.75;3.15;;;18.20;63.20;;;;;;10288689;28;20054;-68
2021/01/15 16:32:43;;;;;;;9.93;3.50;;;18.20;61.90;;;;;;10289266;28;20897;-68
2021/01/15 16:37:45;;;;;;;17.88;3.15;;;18.20;61.00;;;;;;10279919;28;20097;-65
2021/01/15 16:42:46;;;;;;;5.53;2.38;;;18.20;60.80;;;;;;10277563;28;20094;-66
2021/01/15 16:47:46;;;;;;;6.25;2.17;;;18.20;59.80;;;;;;10285035;28;20061;-65
2021/01/15 16:52:47;;;;;;;9.05;3.17;;;18.20;59.80;;;;;;10284713;28;20035;-68
2021/01/15 16:57:48;;;;;;;6.53;2.88;;;18.10;59.00;;;;;;10270405;28;20082;-62
2021/01/15 17:02:48;;;;;;;11.50;2.85;;;18.10;58.80;;;;;;10280504;28;20054;-64
2021/01/15 17:07:52;;;;;;;9.98;2.72;;;18.10;58.30;;;;;;10289416;28;20066;-70
2021/01/15 17:12:55;;;;;;;7.60;3.35;;;18.20;58.90;;;;;;10286100;28;20039;-63
2021/01/15 17:17:56;;;;;;;12.05;4.00;;;18.30;60.10;;;;;;10289874;28;20439;-62
2021/01/15 17:22:57;;;;;;;14.25;3.50;;;18.40;61.00;;;;;;10286895;28;20554;-66
2021/01/15 17:28:00;;;;;;;8.25;3.13;;;18.60;62.10;;;;;;10283246;28;20100;-67
2021/01/15 17:33:03;;;;;;;12.52;3.88;;;18.50;62.60;;;;;;10283890;28;20038;-67
2021/01/15 17:38:04;;;;;;;7.95;3.72;;;18.50;63.00;;;;;;10274390;28;20030;-60
2021/01/15 17:43:05;;;;;;;9.50;3.00;;;18.50;62.80;;;;;;10294731;28;20119;-65
2021/01/15 17:48:06;;;;;;;18.27;3.35;;;18.40;63.00;;;;;;10285703;28;20556;-66
2021/01/15 17:53:15;;;;;;;6.47;2.78;;;18.50;62.40;;;;;;10291936;28;20070;-66
2021/01/15 17:58:15;;;;;;;12.90;3.13;;;18.40;62.60;;;;;;10294502;28;20039;-67
2021/01/15 18:03:16;;;;;;;12.80;2.90;;;18.30;62.20;;;;;;10295528;28;20027;-68
2021/01/15 18:08:17;;;;;;;8.65;3.20;;;18.30;62.60;;;;;;10293535;28;20031;-66
2021/01/15 18:13:18;;;;;;;12.82;2.85;;;18.40;62.40;;;;;;10282381;28;20539;-67
2021/01/15 18:18:18;;;;;;;10.85;3.55;;;18.30;62.40;;;;;;10279145;28;20058;-67
2021/01/15 18:23:19;;;;;;;7.50;3.28;;;18.30;62.50;;;;;;10290488;28;20161;-67
2021/01/15 18:28:20;;;;;;;8.07;3.00;;;18.30;62.80;;;;;;10293422;28;20472;-68
2021/01/15 18:33:20;;;;;;;6.20;2.70;;;18.40;62.70;;;;;;10305773;28;20041;-67
2021/01/15 18:38:21;;;;;;;8.65;2.80;;;18.30;63.00;;;;;;10293038;28;20153;-66
2021/01/15 18:43:22;;;;;;;10.80;3.58;;;18.30;63.00;;;;;;10291466;28;20121;-65
2021/01/15 18:48:23;;;;;;;10.40;3.53;;;18.30;63.00;;;;;;10280517;28;20543;-68
2021/01/15 18:53:23;;;;;;;10.35;3.40;;;18.30;63.10;;;;;;10287512;28;20106;-62
2021/01/15 18:58:24;;;;;;;13.32;3.13;;;18.30;63.90;;;;;;10291643;28;20043;-64
2021/01/15 19:03:25;;;;;;;6.20;2.38;;;18.30;63.20;;;;;;10271000;28;20070;-66
2021/01/15 19:08:25;;;;;;;9.95;2.28;;;18.30;63.20;;;;;;10291222;28;20098;-66
2021/01/15 19:13:26;;;;;;;5.55;2.00;;;18.30;63.20;;;;;;10290885;28;20080;-65
2021/01/15 19:18:27;;;;;;;4.22;1.95;;;18.40;63.30;;;;;;10293474;28;20515;-67
2021/01/15 19:23:28;;;;;;;4.63;2.08;;;18.30;63.20;;;;;;10289993;28;20046;-65
2021/01/15 19:28:29;;;;;;;4.68;2.15;;;18.40;63.30;;;;;;10295639;28;20034;-65
2021/01/15 19:33:30;;;;;;;8.40;2.40;;;18.40;63.20;;;;;;10293644;28;20522;-66
2021/01/15 19:38:31;;;;;;;9.40;2.65;;;18.30;63.10;;;;;;10292565;28;20114;-67
2021/01/15 19:43:31;;;;;;;6.35;2.47;;;18.40;63.20;;;;;;10290136;28;20169;-66
2021/01/15 19:48:32;;;;;;;4.75;2.33;;;18.40;63.20;;;;;;10286422;28;20042;-66
2021/01/15 19:53:33;;;;;;;5.85;2.60;;;18.40;63.10;;;;;;10288753;28;20158;-69
2021/01/15 19:58:36;;;;;;;3.20;1.80;;;18.40;63.10;;;;;;10288028;28;20559;-64
2021/01/15 20:03:36;;;;;;;5.10;1.88;;;18.40;63.10;;;;;;10284884;28;20038;-64
2021/01/15 20:08:37;;;;;;;5.15;2.15;;;18.40;63.20;;;;;;10284038;28;20031;-65
2021/01/15 20:13:38;;;;;;;6.15;2.22;;;18.30;63.10;;;;;;10283380;28;20114;-64
2021/01/15 20:18:39;;;;;;;3.60;2.13;;;18.30;63.30;;;;;;10287405;28;20237;-64
2021/01/15 20:23:39;;;;;;;4.68;1.95;;;18.20;63.60;;;;;;10283569;28;20447;-63
2021/01/15 20:28:40;;;;;;;5.55;2.35;;;18.10;63.60;;;;;;10290939;28;20043;-65
2021/01/15 20:33:42;;;;;;;8.40;2.65;;;18.10;63.20;;;;;;10284119;28;20026;-64
2021/01/15 20:38:51;;;;;;;5.57;2.50;;;18.20;63.00;;;;;;10294083;28;20035;-65
2021/01/15 20:43:53;;;;;;;5.43;2.20;;;18.20;62.70;;;;;;10276108;28;20035;-65
2021/01/15 20:48:53;;;;;;;5.68;2.47;;;18.20;62.70;;;;;;10274116;28;20043;-65
2021/01/15 20:53:54;;;;;;;3.47;2.03;;;18.10;62.80;;;;;;10283955;28;20035;-65
2021/01/15 20:58:55;;;;;;;4.53;1.98;;;18.00;62.80;;;;;;10292002;28;20102;-65
2021/01/15 21:03:55;;;;;;;3.10;1.80;;;18.10;62.70;;;;;;10283425;28;20110;-65
2021/01/15 21:08:56;;;;;;;4.57;2.33;;;18.10;62.40;;;;;;10291249;28;20021;-64
2021/01/15 21:13:57;;;;;;;3.35;1.80;;;18.10;62.20;;;;;;10272624;28;20042;-65
2021/01/15 21:18:58;;;;;;;6.38;2.25;;;18.20;62.10;;;;;;10305066;28;20030;-65
2021/01/15 21:23:59;;;;;;;3.00;1.80;;;18.20;62.00;;;;;;10299218;28;20122;-65
2021/01/15 21:29:05;;;;;;;3.38;2.30;;;18.20;61.90;;;;;;10301712;28;20114;-65
2021/01/15 21:34:08;;;;;;;4.80;2.13;;;18.20;61.70;;;;;;10291718;28;20391;-64
2021/01/15 21:39:12;;;;;;;3.92;2.08;;;18.20;61.80;;;;;;10296649;28;20042;-64
2021/01/15 21:44:14;;;;;;;2.70;1.50;;;18.20;61.60;;;;;;10293082;28;20038;-64
2021/01/15 21:49:16;;;;;;;3.35;2.10;;;18.20;61.50;;;;;;10300217;28;20443;-64
2021/01/15 21:54:18;;;;;;;4.38;2.20;;;18.20;61.40;;;;;;10299861;28;20042;-65
2021/01/15 21:59:19;;;;;;;3.72;2.05;;;18.20;61.40;;;;;;10296045;28;20536;-65
2021/01/15 22:04:22;;;;;;;5.05;2.10;;;18.20;61.30;;;;;;10294471;28;20034;-64
2021/01/15 22:09:22;;;;;;;3.30;1.98;;;18.20;61.20;;;;;;10298524;28;20022;-65
2021/01/15 22:14:23;;;;;;;2.47;1.70;;;18.20;61.20;;;;;;10297173;28;20034;-65
2021/01/15 22:19:24;;;;;;;2.20;1.45;;;18.20;61.20;;;;;;10304432;28;20464;-65
2021/01/15 22:24:24;;;;;;;3.38;2.00;;;18.20;61.10;;;;;;10296804;28;20030;-64
2021/01/15 22:29:25;;;;;;;2.78;1.85;;;18.20;61.00;;;;;;10284162;28;20110;-64
2021/01/15 22:34:26;;;;;;;2.15;1.40;;;18.20;61.00;;;;;;10284173;28;20121;-64
2021/01/15 22:39:26;;;;;;;2.47;1.70;;;18.20;60.90;;;;;;10301486;28;20102;-64
2021/01/15 22:44:27;;;;;;;3.35;2.00;;;18.20;61.50;;;;;;10295719;28;20085;-64
2021/01/15 22:49:28;;;;;;;2.65;1.85;;;18.20;60.80;;;;;;10296971;28;20045;-64
2021/01/15 22:54:28;;;;;;;3.00;1.90;;;18.20;60.80;;;;;;10293718;28;20039;-64
2021/01/15 22:59:29;;;;;;;3.40;2.28;;;18.20;60.80;;;;;;10296650;28;20125;-65
2021/01/15 23:04:30;;;;;;;3.75;2.03;;;18.20;60.70;;;;;;10287064;28;20113;-65
2021/01/15 23:09:30;;;;;;;3.17;2.00;;;18.20;60.70;;;;;;10296523;28;20058;-65
2021/01/15 23:14:31;;;;;;;2.08;1.42;;;18.20;60.70;;;;;;10289960;28;20110;-65
2021/01/15 23:19:32;;;;;;;3.60;2.25;;;18.20;60.60;;;;;;10289884;28;20113;-65
2021/01/15 23:24:32;;;;;;;3.10;1.77;;;18.20;60.60;;;;;;10290870;28;20487;-65
2021/01/15 23:29:33;;;;;;;3.30;2.10;;;18.20;60.50;;;;;;10292484;28;20034;-65
2021/01/15 23:34:34;;;;;;;3.85;2.17;;;18.20;60.50;;;;;;10281837;28;20125;-64
2021/01/15 23:39:35;;;;;;;3.10;1.88;;;18.20;60.40;;;;;;10289325;28;20034;-65
2021/01/15 23:44:35;;;;;;;3.55;2.00;;;18.20;60.50;;;;;;10295344;28;20030;-64
2021/01/15 23:49:36;;;;;;;3.28;1.88;;;18.20;60.40;;;;;;10295009;28;20031;-64
2021/01/15 23:54:36;;;;;;;3.30;2.00;;;18.20;60.40;;;;;;10291348;28;20121;-65
2021/01/15 23:59:37;;;;;;;2.95;1.77;;;18.20;60.90;;;;;;10294512;28;20097;-65
